createdAt,value
2022-12-07T00:00:43.172Z,14.37
2022-12-07T00:03:29.886Z,13.67
2022-12-07T00:06:18.696Z,15.53
2022-12-07T00:09:06.674Z,15.50
2022-12-07T00:11:53.808Z,16.23
2022-12-07T00:14:40.215Z,16.77
2022-12-07T00:17:28.031Z,14.73
2022-12-07T00:20:14.865Z,13.57
2022-12-07T00:23:02.060Z,13.73
2022-12-07T00:25:50.245Z,16.40
2022-12-07T00:28:37.135Z,17.87
2022-12-07T00:31:26.482Z,16.90
2022-12-07T00:34:18.551Z,18.70
2022-12-07T00:37:05.114Z,15.90
2022-12-07T00:39:51.703Z,15.50
2022-12-07T00:42:38.220Z,13.73
2022-12-07T00:45:24.611Z,15.63
2022-12-07T00:48:11.200Z,14.93
2022-12-07T00:51:00.480Z,15.07
2022-12-07T00:53:47.118Z,17.37
2022-12-07T00:56:33.918Z,16.37
2022-12-07T00:59:20.380Z,16.50
2022-12-07T01:02:06.695Z,16.90
2022-12-07T01:04:53.312Z,17.50
2022-12-07T01:07:41.165Z,16.20
2022-12-07T01:10:28.091Z,14.23
2022-12-07T01:13:14.882Z,14.77
2022-12-07T01:16:03.040Z,21.83
2022-12-07T01:18:50.778Z,16.63
2022-12-07T01:21:38.672Z,17.50
2022-12-07T01:24:26.870Z,16.00
2022-12-07T01:27:13.800Z,15.73
2022-12-07T01:30:00.415Z,14.70
2022-12-07T01:32:47.275Z,14.03
2022-12-07T01:35:36.011Z,16.47
2022-12-07T01:38:22.909Z,14.67
2022-12-07T01:41:11.095Z,14.17
2022-12-07T01:44:15.167Z,14.63
2022-12-07T01:47:03.470Z,14.40
2022-12-07T01:49:51.504Z,13.57
2022-12-07T01:52:41.596Z,14.03
2022-12-07T01:55:29.132Z,15.10
2022-12-07T01:58:18.490Z,14.63
2022-12-07T02:01:05.149Z,14.77
2022-12-07T02:03:51.768Z,15.50
2022-12-07T02:06:39.504Z,13.00
2022-12-07T02:09:26.272Z,13.53
2022-12-07T02:12:13.205Z,12.10
2022-12-07T02:15:01.264Z,12.60
2022-12-07T02:17:55.528Z,11.57
2022-12-07T02:20:51.538Z,13.03
2022-12-07T02:24:04.098Z,13.90
2022-12-07T02:27:09.378Z,12.27
2022-12-07T02:30:02.597Z,11.60
2022-12-07T02:32:57.820Z,10.70
2022-12-07T02:35:48.446Z,12.90
2022-12-07T02:38:41.935Z,12.33
2022-12-07T02:41:31.620Z,11.67
2022-12-07T02:44:22.193Z,11.23
2022-12-07T02:47:14.409Z,11.30
2022-12-07T02:50:01.198Z,12.53
2022-12-07T02:52:47.944Z,13.10
2022-12-07T02:55:40.830Z,12.10
2022-12-07T02:58:37.796Z,13.13
2022-12-07T03:01:33.946Z,14.47
2022-12-07T03:04:39.574Z,16.53
2022-12-07T03:07:35.910Z,11.53
2022-12-07T03:10:34.611Z,13.00
2022-12-07T03:13:25.492Z,15.60
2022-12-07T03:16:17.688Z,14.03
2022-12-07T03:19:08.890Z,15.73
2022-12-07T03:22:00.027Z,12.60
2022-12-07T03:24:53.346Z,10.57
2022-12-07T03:27:44.447Z,13.73
2022-12-07T03:30:35.075Z,14.27
2022-12-07T03:33:26.034Z,15.50
2022-12-07T03:36:18.610Z,14.73
2022-12-07T03:39:19.298Z,11.47
2022-12-07T03:42:08.711Z,11.63
2022-12-07T03:44:55.533Z,14.53
2022-12-07T03:47:49.433Z,12.70
2022-12-07T03:50:43.465Z,13.60
2022-12-07T03:53:36.688Z,13.70
2022-12-07T03:56:25.648Z,11.27
2022-12-07T03:59:14.532Z,14.07
2022-12-07T04:02:05.609Z,13.43
2022-12-07T04:04:52.481Z,13.37
2022-12-07T04:07:39.142Z,9.87
2022-12-07T04:10:26.043Z,11.33
2022-12-07T04:13:13.864Z,11.17
2022-12-07T04:16:00.632Z,11.73
2022-12-07T04:18:47.577Z,11.27
2022-12-07T04:21:33.954Z,8.50
2022-12-07T04:24:20.820Z,9.17
2022-12-07T04:27:07.366Z,9.97
2022-12-07T04:29:56.606Z,9.53
2022-12-07T04:32:43.220Z,9.27
2022-12-07T04:35:29.856Z,11.83
2022-12-07T04:38:16.254Z,7.90
2022-12-07T04:41:07.685Z,7.57
2022-12-07T04:43:54.383Z,9.70
2022-12-07T04:46:43.266Z,7.17
2022-12-07T04:49:30.042Z,8.20
2022-12-07T04:52:16.774Z,6.63
2022-12-07T04:55:03.522Z,7.87
2022-12-07T04:57:50.251Z,7.73
2022-12-07T05:00:36.765Z,10.37
2022-12-07T05:03:25.039Z,8.17
2022-12-07T05:06:13.828Z,5.83
2022-12-07T05:09:00.873Z,7.03
2022-12-07T05:11:47.273Z,8.97
2022-12-07T05:14:34.052Z,7.17
2022-12-07T05:17:20.649Z,12.47
2022-12-07T05:20:10.029Z,7.07
2022-12-07T05:22:56.628Z,5.70
2022-12-07T05:25:43.051Z,7.10
2022-12-07T05:28:29.488Z,7.37
2022-12-07T05:31:16.082Z,5.30
2022-12-07T05:34:02.915Z,5.57
2022-12-07T05:36:51.400Z,5.43
2022-12-07T05:39:38.819Z,4.60
2022-12-07T05:42:25.318Z,7.93
2022-12-07T05:45:12.390Z,3.90
2022-12-07T05:47:59.075Z,2.40
2022-12-07T05:50:45.612Z,4.50
2022-12-07T05:53:33.394Z,4.23
2022-12-07T05:56:20.209Z,4.03
2022-12-07T05:59:24.747Z,4.93
2022-12-07T06:02:13.852Z,3.37
2022-12-07T06:05:00.396Z,5.40
2022-12-07T06:07:46.969Z,4.40
2022-12-07T06:10:35.043Z,7.30
2022-12-07T06:13:20.862Z,3.70
2022-12-07T06:16:08.348Z,2.63
2022-12-07T06:18:55.157Z,2.80
2022-12-07T06:21:41.938Z,5.20
2022-12-07T06:24:28.571Z,8.10
2022-12-07T06:27:16.425Z,2.17
2022-12-07T06:30:07.304Z,1.97
2022-12-07T06:32:53.903Z,7.13
2022-12-07T06:35:40.348Z,3.77
2022-12-07T06:38:26.811Z,1.90
2022-12-07T06:41:13.262Z,6.37
2022-12-07T06:44:00.981Z,5.33
2022-12-07T06:46:47.580Z,2.40
2022-12-07T06:49:34.140Z,1.63
2022-12-07T06:52:20.552Z,2.47
2022-12-07T06:55:08.274Z,2.10
2022-12-07T06:57:55.057Z,3.63
2022-12-07T07:00:42.845Z,4.67
2022-12-07T07:03:29.477Z,4.97
2022-12-07T07:06:16.560Z,8.50
2022-12-07T07:09:03.468Z,4.57
2022-12-07T07:11:50.088Z,3.70
2022-12-07T07:14:36.840Z,4.80
2022-12-07T07:17:24.896Z,3.53
2022-12-07T07:20:12.764Z,7.13
2022-12-07T07:22:59.623Z,1.67
2022-12-07T07:25:46.820Z,5.03
2022-12-07T07:28:33.383Z,6.00
2022-12-07T07:31:20.186Z,4.80
2022-12-07T07:34:08.666Z,5.03
2022-12-07T07:36:55.067Z,4.73
2022-12-07T07:39:41.572Z,5.90
2022-12-07T07:42:28.159Z,4.87
2022-12-07T07:45:14.546Z,5.77
2022-12-07T07:48:01.014Z,6.40
2022-12-07T07:50:48.812Z,3.50
2022-12-07T07:53:35.428Z,3.60
2022-12-07T07:56:21.749Z,1.97
2022-12-07T07:59:08.236Z,3.30
2022-12-07T08:01:54.700Z,2.33
2022-12-07T08:04:41.812Z,3.53
2022-12-07T08:07:30.834Z,5.10
2022-12-07T08:10:17.686Z,2.07
2022-12-07T08:13:14.495Z,2.73
2022-12-07T08:16:05.955Z,3.43
2022-12-07T08:18:52.803Z,1.87
2022-12-07T08:21:39.905Z,3.50
2022-12-07T08:24:28.184Z,2.67
2022-12-07T08:27:14.887Z,3.73
2022-12-07T08:30:01.657Z,4.00
2022-12-07T08:32:49.256Z,2.93
2022-12-07T08:35:36.047Z,5.77
2022-12-07T08:38:25.080Z,2.23
2022-12-07T08:41:17.033Z,4.73
2022-12-07T08:44:03.651Z,3.63
2022-12-07T08:46:54.534Z,7.13
2022-12-07T08:49:43.735Z,5.77
2022-12-07T08:52:30.904Z,5.63
2022-12-07T08:55:17.364Z,2.27
2022-12-07T08:58:05.632Z,5.40
2022-12-07T09:00:52.554Z,4.73
2022-12-07T09:03:39.076Z,1.93
2022-12-07T09:06:25.891Z,3.80
2022-12-07T09:09:15.890Z,4.27
2022-12-07T09:12:02.708Z,5.73
2022-12-07T09:14:50.439Z,3.93
2022-12-07T09:17:38.260Z,5.67
2022-12-07T09:20:28.007Z,4.77
2022-12-07T09:23:14.798Z,3.63
2022-12-07T09:26:07.437Z,4.67
2022-12-07T09:28:57.161Z,4.73
2022-12-07T09:31:45.023Z,9.80
2022-12-07T09:34:33.346Z,5.20
2022-12-07T09:37:20.730Z,2.27
2022-12-07T09:40:08.668Z,4.80
2022-12-07T09:42:57.731Z,7.87
2022-12-07T09:45:48.703Z,6.60
2022-12-07T09:48:40.058Z,6.23
2022-12-07T09:51:26.951Z,2.97
2022-12-07T09:54:16.751Z,4.93
2022-12-07T09:57:03.230Z,3.30
2022-12-07T09:59:49.684Z,4.73
2022-12-07T10:02:40.116Z,4.43
2022-12-07T10:05:32.331Z,1.80
2022-12-07T10:08:19.277Z,4.20
2022-12-07T10:11:11.439Z,3.03
2022-12-07T10:14:13.059Z,3.03
2022-12-07T10:16:59.748Z,5.03
2022-12-07T10:19:46.566Z,5.63
2022-12-07T10:22:34.372Z,1.93
2022-12-07T10:25:22.788Z,4.37
2022-12-07T10:28:16.323Z,1.50
2022-12-07T10:31:06.227Z,5.50
2022-12-07T10:33:55.785Z,3.20
2022-12-07T10:36:42.669Z,3.03
2022-12-07T10:39:30.654Z,4.70
2022-12-07T10:42:22.808Z,4.90
2022-12-07T10:45:11.972Z,7.80
2022-12-07T10:48:05.297Z,3.87
2022-12-07T10:51:05.819Z,4.80
2022-12-07T10:54:04.574Z,1.40
2022-12-07T10:57:30.812Z,3.20
2022-12-07T11:00:20.831Z,4.90
2022-12-07T11:03:33.301Z,4.07
2022-12-07T11:06:29.316Z,2.43
2022-12-07T11:10:07.241Z,5.77
2022-12-07T11:13:10.449Z,2.47
2022-12-07T11:16:22.209Z,4.63
2022-12-07T11:19:28.494Z,2.70
2022-12-07T11:22:20.142Z,4.67
2022-12-07T11:25:29.103Z,2.57
2022-12-07T11:28:33.602Z,3.80
2022-12-07T11:31:30.142Z,7.73
2022-12-07T11:34:27.092Z,4.80
2022-12-07T11:37:18.748Z,6.23
2022-12-07T11:40:08.305Z,8.30
2022-12-07T11:42:59.280Z,3.60
2022-12-07T11:45:54.655Z,3.00
2022-12-07T11:48:47.440Z,3.13
2022-12-07T11:51:38.939Z,6.40
2022-12-07T11:54:30.262Z,4.13
2022-12-07T11:57:21.619Z,2.50
2022-12-07T12:00:16.195Z,4.47
2022-12-07T12:03:11.500Z,6.57
2022-12-07T12:05:58.845Z,4.43
2022-12-07T12:15:45.107Z,3.53
2022-12-07T12:18:54.356Z,6.67
2022-12-07T12:21:41.525Z,4.50
2022-12-07T12:24:31.498Z,3.17
2022-12-07T12:27:24.381Z,3.13
2022-12-07T12:30:31.467Z,5.93
2022-12-07T12:33:27.912Z,4.27
2022-12-07T12:36:45.148Z,2.27
2022-12-07T12:39:32.566Z,6.23
2022-12-07T12:42:21.270Z,2.80
2022-12-07T12:45:23.957Z,8.83
2022-12-07T12:48:32.082Z,5.90
2022-12-07T12:51:40.546Z,1.57
2022-12-07T12:54:29.046Z,3.30
2022-12-07T12:57:22.278Z,2.63
2022-12-07T13:00:19.377Z,5.17
2022-12-07T13:03:10.253Z,1.60
2022-12-07T13:06:22.530Z,4.57
2022-12-07T13:09:23.615Z,4.93
2022-12-07T13:12:16.129Z,4.53
2022-12-07T13:15:04.380Z,1.90
2022-12-07T13:18:01.726Z,2.63
2022-12-07T13:20:56.766Z,4.33
2022-12-07T13:23:59.896Z,3.30
2022-12-07T13:26:47.878Z,6.37
2022-12-07T13:29:39.602Z,2.50
2022-12-07T13:32:27.956Z,8.13
2022-12-07T13:35:31.522Z,4.67
2022-12-07T13:38:27.518Z,1.97
2022-12-07T13:41:16.633Z,2.53
2022-12-07T13:44:11.422Z,4.40
2022-12-07T13:47:06.639Z,4.57
2022-12-07T13:49:55.720Z,6.70
2022-12-07T13:52:46.679Z,3.50
2022-12-07T13:55:33.442Z,4.97
2022-12-07T13:58:20.161Z,5.53
2022-12-07T14:01:08.493Z,3.50
2022-12-07T14:03:55.278Z,6.33
2022-12-07T14:06:50.627Z,3.03
2022-12-07T14:09:37.224Z,4.30
2022-12-07T14:12:25.649Z,2.57
2022-12-07T14:15:22.404Z,2.03
2022-12-07T14:18:29.644Z,2.53
2022-12-07T14:21:19.341Z,4.30
2022-12-07T14:24:19.390Z,4.43
2022-12-07T14:27:18.694Z,4.47
2022-12-07T14:30:07.318Z,3.90
2022-12-07T14:32:57.323Z,6.37
2022-12-07T14:35:45.235Z,3.30
2022-12-07T14:38:31.988Z,9.63
2022-12-07T14:41:41.229Z,6.27
2022-12-07T14:44:35.321Z,5.00
2022-12-07T14:50:29.055Z,5.03
2022-12-07T14:56:09.341Z,5.90
2022-12-07T14:58:56.123Z,7.80
2022-12-07T15:01:42.551Z,2.87
2022-12-07T15:04:29.143Z,4.30
2022-12-07T15:07:22.027Z,4.37
2022-12-07T15:10:23.554Z,3.03
2022-12-07T15:13:28.432Z,4.73
2022-12-07T15:16:18.837Z,3.70
2022-12-07T15:19:27.311Z,3.97
2022-12-07T15:22:13.009Z,3.77
2022-12-07T15:25:00.005Z,4.93
2022-12-07T15:27:48.380Z,4.73
2022-12-07T15:30:34.936Z,6.27
2022-12-07T15:33:21.382Z,7.43
2022-12-07T15:36:08.650Z,6.20
2022-12-07T15:39:13.794Z,6.40
2022-12-07T15:42:01.336Z,3.70
2022-12-07T15:45:08.135Z,5.00
2022-12-07T15:48:26.728Z,5.07
2022-12-07T15:51:06.848Z,5.87
2022-12-07T15:53:53.395Z,4.70
2022-12-07T15:56:40.055Z,4.80
2022-12-07T15:59:27.910Z,5.63
2022-12-07T16:02:16.219Z,3.73
2022-12-07T16:05:02.876Z,7.67
2022-12-07T16:07:49.795Z,5.27
2022-12-07T16:10:36.799Z,2.23
2022-12-07T16:13:23.588Z,4.97
2022-12-07T16:16:12.719Z,5.70
2022-12-07T16:19:00.864Z,4.70
2022-12-07T16:21:47.530Z,10.13
2022-12-07T16:24:34.527Z,5.20
2022-12-07T16:27:21.152Z,5.50
2022-12-07T16:30:09.815Z,2.27
2022-12-07T16:33:00.878Z,15.83
2022-12-07T16:35:50.604Z,5.13
2022-12-07T16:38:38.655Z,8.93
2022-12-07T16:41:25.572Z,3.07
2022-12-07T16:44:14.507Z,2.43
2022-12-07T16:47:01.872Z,3.77
2022-12-07T16:49:48.828Z,5.77
2022-12-07T16:52:36.926Z,3.57
2022-12-07T16:55:23.664Z,5.30
2022-12-07T16:58:10.572Z,3.17
2022-12-07T17:00:58.006Z,7.00
2022-12-07T17:03:45.043Z,5.87
2022-12-07T17:06:32.255Z,5.90
2022-12-07T17:09:23.270Z,2.83
2022-12-07T17:12:09.829Z,2.07
2022-12-07T17:15:13.794Z,1.83
2022-12-07T17:18:01.226Z,2.50
2022-12-07T17:20:47.713Z,3.00
2022-12-07T17:23:35.187Z,4.17
2022-12-07T17:26:25.936Z,1.67
2022-12-07T17:29:17.146Z,3.87
2022-12-07T17:32:04.088Z,3.07
2022-12-07T17:34:51.039Z,2.83
2022-12-07T17:37:37.650Z,8.53
2022-12-07T17:40:24.289Z,2.67
2022-12-07T17:43:12.301Z,4.53
2022-12-07T17:45:59.059Z,3.43
2022-12-07T17:48:45.983Z,3.80
2022-12-07T17:51:49.971Z,3.67
2022-12-07T17:54:36.641Z,4.70
2022-12-07T17:57:23.413Z,2.50
2022-12-07T18:00:12.982Z,4.50
2022-12-07T18:02:59.895Z,4.30
2022-12-07T18:05:49.018Z,8.00
2022-12-07T18:08:38.863Z,4.70
2022-12-07T18:11:25.421Z,4.43
2022-12-07T18:14:12.314Z,7.63
2022-12-07T18:17:00.307Z,11.07
2022-12-07T18:19:46.857Z,5.27
2022-12-07T18:22:33.410Z,13.93
2022-12-07T18:25:19.879Z,10.20
2022-12-07T18:28:06.679Z,6.07
2022-12-07T18:34:05.010Z,4.97
2022-12-07T18:36:51.774Z,2.70
2022-12-07T18:39:38.224Z,7.40
2022-12-07T18:42:24.698Z,6.50
2022-12-07T18:45:12.053Z,3.90
2022-12-07T18:47:58.686Z,4.60
2022-12-07T18:50:47.592Z,7.50
2022-12-07T18:53:35.311Z,3.80
2022-12-07T18:56:23.877Z,5.17
2022-12-07T18:59:32.487Z,12.97
2022-12-07T19:02:20.192Z,11.63
2022-12-07T19:05:07.395Z,9.83
2022-12-07T19:07:55.559Z,4.93
2022-12-07T19:10:42.603Z,8.47
2022-12-07T19:13:29.088Z,4.27
2022-12-07T19:16:15.625Z,5.33
2022-12-07T19:19:02.265Z,6.27
2022-12-07T19:21:48.910Z,2.53
2022-12-07T19:24:37.235Z,4.00
2022-12-07T19:27:24.708Z,3.80
2022-12-07T19:30:11.991Z,2.53
2022-12-07T19:32:58.488Z,3.03
2022-12-07T19:35:45.032Z,4.27
2022-12-07T19:38:32.590Z,6.13
2022-12-07T19:41:35.548Z,3.03
2022-12-07T19:44:25.401Z,5.33
2022-12-07T19:47:12.697Z,5.23
2022-12-07T19:49:59.203Z,10.60
2022-12-07T19:52:45.692Z,4.63
2022-12-07T19:55:32.258Z,5.03
2022-12-07T19:58:20.146Z,4.17
2022-12-07T20:01:07.629Z,7.60
2022-12-07T20:03:54.176Z,5.13
2022-12-07T20:06:41.160Z,6.97
2022-12-07T20:09:27.764Z,4.07
2022-12-07T20:12:31.507Z,4.27
2022-12-07T20:15:19.723Z,5.40
2022-12-07T20:18:06.270Z,7.93
2022-12-07T20:20:56.611Z,5.07
2022-12-07T20:23:43.388Z,4.23
2022-12-07T20:26:30.606Z,8.47
2022-12-07T20:29:19.474Z,7.63
2022-12-07T20:32:07.502Z,7.23
2022-12-07T20:34:54.591Z,5.47
2022-12-07T20:37:41.184Z,6.17
2022-12-07T20:40:27.637Z,6.73
2022-12-07T20:43:14.330Z,4.83
2022-12-07T20:46:01.696Z,7.80
2022-12-07T20:48:49.921Z,19.40
2022-12-07T20:51:36.683Z,29.77
2022-12-07T20:54:23.526Z,8.40
2022-12-07T20:57:10.099Z,10.63
2022-12-07T20:59:56.587Z,10.60
2022-12-07T21:02:43.129Z,8.80
2022-12-07T21:05:31.404Z,4.57
2022-12-07T21:08:18.123Z,7.03
2022-12-07T21:11:09.122Z,4.93
2022-12-07T21:13:55.972Z,8.43
2022-12-07T21:16:42.462Z,7.33
2022-12-07T21:19:29.461Z,13.73
2022-12-07T21:22:17.454Z,6.37
2022-12-07T21:25:04.897Z,7.00
2022-12-07T21:27:51.756Z,15.10
2022-12-07T21:31:11.049Z,9.27
2022-12-07T21:33:47.603Z,16.15
2022-12-07T21:36:34.789Z,16.53
2022-12-07T21:39:22.709Z,10.57
2022-12-07T21:42:09.303Z,13.70
2022-12-07T21:44:55.888Z,10.50
2022-12-07T21:47:42.481Z,10.10
2022-12-07T21:50:28.876Z,16.40
2022-12-07T21:53:17.152Z,16.23
2022-12-07T21:56:06.336Z,16.43
2022-12-07T21:58:54.422Z,15.57
2022-12-07T22:01:45.265Z,8.80
2022-12-07T22:04:31.890Z,9.80
2022-12-07T22:07:18.373Z,11.83
2022-12-07T22:10:05.407Z,12.67
2022-12-07T22:12:53.438Z,12.60
2022-12-07T22:15:42.038Z,8.77
2022-12-07T22:18:28.810Z,15.27
2022-12-07T22:21:15.284Z,8.97
2022-12-07T22:24:01.967Z,7.70
2022-12-07T22:26:48.868Z,9.73
2022-12-07T22:29:36.622Z,10.93
2022-12-07T22:32:47.813Z,7.70
2022-12-07T22:35:29.783Z,8.77
2022-12-07T22:38:16.380Z,9.03
2022-12-07T22:41:11.058Z,11.43
2022-12-07T22:43:58.403Z,8.77
2022-12-07T22:46:46.817Z,8.13
2022-12-07T22:49:33.607Z,11.23
2022-12-07T22:52:20.387Z,9.33
2022-12-07T22:55:08.099Z,7.27
2022-12-07T22:57:55.040Z,9.07
2022-12-07T23:00:41.988Z,7.17
2022-12-07T23:03:30.112Z,6.53
2022-12-07T23:06:19.678Z,7.50
2022-12-07T23:09:08.591Z,7.47
2022-12-07T23:12:12.403Z,7.83
2022-12-07T23:14:59.175Z,7.83
2022-12-07T23:17:47.544Z,5.63
2022-12-07T23:20:35.434Z,6.00
2022-12-07T23:23:22.245Z,6.17
2022-12-07T23:26:10.986Z,7.03
2022-12-07T23:28:58.386Z,5.57
2022-12-07T23:31:45.044Z,12.90
2022-12-07T23:34:31.843Z,5.63
2022-12-07T23:37:19.775Z,8.17
2022-12-07T23:40:08.099Z,5.53
2022-12-07T23:42:54.808Z,5.70
2022-12-07T23:45:41.411Z,5.07
2022-12-07T23:48:27.846Z,6.83
2022-12-07T23:51:15.691Z,8.30
2022-12-07T23:54:04.150Z,9.47
2022-12-07T23:56:50.938Z,6.23
2022-12-07T23:59:38.480Z,7.70
